sensor_id;sensor_type;location;lat;lon;timestamp;temperature;humidity
5276;DHT22;2661;50.786;12.728;2023-09-19T00:00:55;15.40;99.90
5276;DHT22;2661;50.786;12.728;2023-09-19T00:03:22;15.40;99.90
5276;DHT22;2661;50.786;12.728;2023-09-19T00:05:49;15.40;1.00
5276;DHT22;2661;50.786;12.728;2023-09-19T00:08:16;15.40;99.90
5276;DHT22;2661;50.786;12.728;2023-09-19T00:10:43;15.50;1.00
5276;DHT22;2661;50.786;12.728;2023-09-19T00:13:10;15.50;1.00
5276;DHT22;2661;50.786;12.728;2023-09-19T00:15:46;15.50;1.00
5276;DHT22;2661;50.786;12.728;2023-09-19T00:18:16;15.60;1.00
5276;DHT22;2661;50.786;12.728;2023-09-19T00:20:45;15.60;1.00
5276;DHT22;2661;50.786;12.728;2023-09-19T00:23:17;15.60;99.90
5276;DHT22;2661;50.786;12.728;2023-09-19T00:25:46;15.60;99.90
5276;DHT22;2661;50.786;12.728;2023-09-19T00:28:12;15.60;99.90
5276;DHT22;2661;50.786;12.728;2023-09-19T00:30:42;15.60;99.90
5276;DHT22;2661;50.786;12.728;2023-09-19T00:33:09;15.60;99.90
5276;DHT22;2661;50.786;12.728;2023-09-19T00:35:37;15.60;12.30
5276;DHT22;2661;50.786;12.728;2023-09-19T00:38:04;15.70;1.00
5276;DHT22;2661;50.786;12.728;2023-09-19T00:40:33;15.70;1.00
5276;DHT22;2661;50.786;12.728;2023-09-19T00:43:00;15.80;4.00
5276;DHT22;2661;50.786;12.728;2023-09-19T00:45:27;15.80;1.00
5276;DHT22;2661;50.786;12.728;2023-09-19T00:47:54;15.80;1.00
5276;DHT22;2661;50.786;12.728;2023-09-19T00:50:22;15.90;99.90
5276;DHT22;2661;50.786;12.728;2023-09-19T00:52:50;15.90;1.00
5276;DHT22;2661;50.786;12.728;2023-09-19T00:55:17;15.90;1.00
5276;DHT22;2661;50.786;12.728;2023-09-19T00:57:46;15.90;1.00
5276;DHT22;2661;50.786;12.728;2023-09-19T01:00:14;15.90;1.00
5276;DHT22;2661;50.786;12.728;2023-09-19T01:02:42;16.00;1.00
5276;DHT22;2661;50.786;12.728;2023-09-19T01:05:10;16.00;99.90
5276;DHT22;2661;50.786;12.728;2023-09-19T01:07:38;16.00;1.00
5276;DHT22;2661;50.786;12.728;2023-09-19T01:10:08;15.90;1.00
5276;DHT22;2661;50.786;12.728;2023-09-19T01:17:52;15.90;1.00
5276;DHT22;2661;50.786;12.728;2023-09-19T01:20:30;15.80;1.00
5276;DHT22;2661;50.786;12.728;2023-09-19T01:23:10;15.80;1.00
5276;DHT22;2661;50.786;12.728;2023-09-19T01:30:51;15.80;1.00
5276;DHT22;2661;50.786;12.728;2023-09-19T01:33:20;15.80;1.00
5276;DHT22;2661;50.786;12.728;2023-09-19T01:35:47;15.80;1.00
5276;DHT22;2661;50.786;12.728;2023-09-19T01:38:13;15.80;1.00
5276;DHT22;2661;50.786;12.728;2023-09-19T01:40:41;15.80;1.00
5276;DHT22;2661;50.786;12.728;2023-09-19T01:43:09;15.80;99.90
5276;DHT22;2661;50.786;12.728;2023-09-19T01:45:46;15.80;99.90
5276;DHT22;2661;50.786;12.728;2023-09-19T01:48:20;15.80;1.00
5276;DHT22;2661;50.786;12.728;2023-09-19T01:50:59;15.80;1.00
5276;DHT22;2661;50.786;12.728;2023-09-19T01:53:26;15.80;99.90
5276;DHT22;2661;50.786;12.728;2023-09-19T01:55:57;15.80;1.00
5276;DHT22;2661;50.786;12.728;2023-09-19T01:58:32;15.80;99.90
5276;DHT22;2661;50.786;12.728;2023-09-19T02:01:01;15.90;1.00
5276;DHT22;2661;50.786;12.728;2023-09-19T02:03:28;15.90;1.00
5276;DHT22;2661;50.786;12.728;2023-09-19T02:05:55;15.90;99.90
5276;DHT22;2661;50.786;12.728;2023-09-19T02:08:22;15.90;99.90
5276;DHT22;2661;50.786;12.728;2023-09-19T02:10:50;16.00;1.00
5276;DHT22;2661;50.786;12.728;2023-09-19T02:13:17;16.00;1.00
5276;DHT22;2661;50.786;12.728;2023-09-19T02:15:44;16.00;1.00
5276;DHT22;2661;50.786;12.728;2023-09-19T02:18:11;16.00;1.00
5276;DHT22;2661;50.786;12.728;2023-09-19T02:20:38;16.00;1.00
5276;DHT22;2661;50.786;12.728;2023-09-19T02:23:05;16.10;1.00
5276;DHT22;2661;50.786;12.728;2023-09-19T02:25:32;16.00;1.00
5276;DHT22;2661;50.786;12.728;2023-09-19T02:27:59;16.00;1.00
5276;DHT22;2661;50.786;12.728;2023-09-19T02:30:27;16.00;1.00
5276;DHT22;2661;50.786;12.728;2023-09-19T02:32:54;16.00;1.00
5276;DHT22;2661;50.786;12.728;2023-09-19T02:35:21;15.90;1.00
5276;DHT22;2661;50.786;12.728;2023-09-19T02:37:48;16.00;1.00
5276;DHT22;2661;50.786;12.728;2023-09-19T02:40:15;15.90;1.00
5276;DHT22;2661;50.786;12.728;2023-09-19T02:42:53;15.90;1.00
5276;DHT22;2661;50.786;12.728;2023-09-19T02:45:20;16.00;1.00
5276;DHT22;2661;50.786;12.728;2023-09-19T02:47:46;16.00;1.00
5276;DHT22;2661;50.786;12.728;2023-09-19T02:50:14;16.00;1.00
5276;DHT22;2661;50.786;12.728;2023-09-19T02:52:43;16.00;1.00
5276;DHT22;2661;50.786;12.728;2023-09-19T02:55:10;16.00;1.00
5276;DHT22;2661;50.786;12.728;2023-09-19T02:57:37;16.00;1.00
5276;DHT22;2661;50.786;12.728;2023-09-19T03:00:07;16.00;1.00
5276;DHT22;2661;50.786;12.728;2023-09-19T03:02:36;15.90;1.00
5276;DHT22;2661;50.786;12.728;2023-09-19T03:05:03;15.90;1.00
5276;DHT22;2661;50.786;12.728;2023-09-19T03:07:30;15.90;1.00
5276;DHT22;2661;50.786;12.728;2023-09-19T03:09:59;15.80;1.00
5276;DHT22;2661;50.786;12.728;2023-09-19T03:12:26;15.80;1.00
5276;DHT22;2661;50.786;12.728;2023-09-19T03:14:53;15.80;1.00
5276;DHT22;2661;50.786;12.728;2023-09-19T03:17:19;15.70;1.00
5276;DHT22;2661;50.786;12.728;2023-09-19T03:19:46;15.70;1.00
5276;DHT22;2661;50.786;12.728;2023-09-19T03:22:14;15.80;1.00
5276;DHT22;2661;50.786;12.728;2023-09-19T03:24:41;15.70;1.00
5276;DHT22;2661;50.786;12.728;2023-09-19T03:27:10;15.70;1.00
5276;DHT22;2661;50.786;12.728;2023-09-19T03:29:36;15.60;1.00
5276;DHT22;2661;50.786;12.728;2023-09-19T03:32:03;15.60;1.00
5276;DHT22;2661;50.786;12.728;2023-09-19T03:34:30;15.60;17.10
5276;DHT22;2661;50.786;12.728;2023-09-19T03:36:57;15.50;32.00
5276;DHT22;2661;50.786;12.728;2023-09-19T03:39:24;15.50;75.00
5276;DHT22;2661;50.786;12.728;2023-09-19T03:41:50;15.60;98.50
5276;DHT22;2661;50.786;12.728;2023-09-19T03:44:17;15.60;1.00
5276;DHT22;2661;50.786;12.728;2023-09-19T03:46:43;15.60;1.00
5276;DHT22;2661;50.786;12.728;2023-09-19T03:49:10;15.50;1.00
5276;DHT22;2661;50.786;12.728;2023-09-19T03:51:37;15.50;26.90
5276;DHT22;2661;50.786;12.728;2023-09-19T03:54:04;15.50;1.00
5276;DHT22;2661;50.786;12.728;2023-09-19T03:56:30;15.50;18.70
5276;DHT22;2661;50.786;12.728;2023-09-19T03:58:57;15.50;1.00
5276;DHT22;2661;50.786;12.728;2023-09-19T04:01:24;15.60;1.00
5276;DHT22;2661;50.786;12.728;2023-09-19T04:03:51;15.60;1.00
5276;DHT22;2661;50.786;12.728;2023-09-19T04:06:20;15.60;1.00
5276;DHT22;2661;50.786;12.728;2023-09-19T04:08:46;15.70;1.00
5276;DHT22;2661;50.786;12.728;2023-09-19T04:11:14;15.80;1.00
5276;DHT22;2661;50.786;12.728;2023-09-19T04:13:40;15.80;1.00
5276;DHT22;2661;50.786;12.728;2023-09-19T04:16:07;15.80;1.00
5276;DHT22;2661;50.786;12.728;2023-09-19T04:18:34;15.80;1.00
5276;DHT22;2661;50.786;12.728;2023-09-19T04:21:04;15.80;1.00
5276;DHT22;2661;50.786;12.728;2023-09-19T04:23:32;15.70;1.00
5276;DHT22;2661;50.786;12.728;2023-09-19T04:25:59;15.70;1.00
5276;DHT22;2661;50.786;12.728;2023-09-19T04:28:26;15.70;1.00
5276;DHT22;2661;50.786;12.728;2023-09-19T04:30:54;15.60;1.00
5276;DHT22;2661;50.786;12.728;2023-09-19T04:33:21;15.60;1.00
5276;DHT22;2661;50.786;12.728;2023-09-19T04:35:49;15.60;1.00
5276;DHT22;2661;50.786;12.728;2023-09-19T04:38:15;15.60;1.00
5276;DHT22;2661;50.786;12.728;2023-09-19T04:40:42;15.60;1.00
5276;DHT22;2661;50.786;12.728;2023-09-19T04:43:09;15.60;1.00
5276;DHT22;2661;50.786;12.728;2023-09-19T04:45:35;15.60;1.00
5276;DHT22;2661;50.786;12.728;2023-09-19T04:48:04;15.60;1.00
5276;DHT22;2661;50.786;12.728;2023-09-19T04:50:32;15.60;1.00
5276;DHT22;2661;50.786;12.728;2023-09-19T04:53:00;15.60;1.00
5276;DHT22;2661;50.786;12.728;2023-09-19T04:55:27;15.60;1.00
5276;DHT22;2661;50.786;12.728;2023-09-19T04:57:54;15.60;1.00
5276;DHT22;2661;50.786;12.728;2023-09-19T05:00:22;15.60;1.00
5276;DHT22;2661;50.786;12.728;2023-09-19T05:02:54;15.50;1.00
5276;DHT22;2661;50.786;12.728;2023-09-19T05:05:23;15.50;1.00
5276;DHT22;2661;50.786;12.728;2023-09-19T05:07:51;15.50;1.00
5276;DHT22;2661;50.786;12.728;2023-09-19T05:10:21;15.50;1.00
5276;DHT22;2661;50.786;12.728;2023-09-19T05:12:48;15.50;1.00
5276;DHT22;2661;50.786;12.728;2023-09-19T05:15:18;15.50;1.00
5276;DHT22;2661;50.786;12.728;2023-09-19T05:17:51;15.40;1.00
5276;DHT22;2661;50.786;12.728;2023-09-19T05:20:22;15.40;1.00
5276;DHT22;2661;50.786;12.728;2023-09-19T05:23:03;15.40;1.00
5276;DHT22;2661;50.786;12.728;2023-09-19T05:25:31;15.40;1.00
5276;DHT22;2661;50.786;12.728;2023-09-19T05:27:59;15.30;1.00
5276;DHT22;2661;50.786;12.728;2023-09-19T05:30:26;15.40;1.00
5276;DHT22;2661;50.786;12.728;2023-09-19T05:32:56;15.40;1.00
5276;DHT22;2661;50.786;12.728;2023-09-19T05:35:23;15.40;1.00
5276;DHT22;2661;50.786;12.728;2023-09-19T05:37:51;15.30;1.00
5276;DHT22;2661;50.786;12.728;2023-09-19T05:40:18;15.30;1.00
5276;DHT22;2661;50.786;12.728;2023-09-19T05:42:45;15.30;1.00
5276;DHT22;2661;50.786;12.728;2023-09-19T05:45:12;15.40;1.00
5276;DHT22;2661;50.786;12.728;2023-09-19T05:47:40;15.30;1.00
5276;DHT22;2661;50.786;12.728;2023-09-19T05:50:11;15.40;1.00
5276;DHT22;2661;50.786;12.728;2023-09-19T05:52:38;15.40;1.00
5276;DHT22;2661;50.786;12.728;2023-09-19T05:55:05;15.40;1.00
5276;DHT22;2661;50.786;12.728;2023-09-19T05:57:34;15.40;1.00
5276;DHT22;2661;50.786;12.728;2023-09-19T06:00:00;15.50;1.00
5276;DHT22;2661;50.786;12.728;2023-09-19T06:02:29;15.60;1.00
5276;DHT22;2661;50.786;12.728;2023-09-19T06:04:56;15.70;1.00
5276;DHT22;2661;50.786;12.728;2023-09-19T06:07:23;15.70;1.00
5276;DHT22;2661;50.786;12.728;2023-09-19T06:09:53;15.80;1.00
5276;DHT22;2661;50.786;12.728;2023-09-19T06:12:22;15.90;1.00
5276;DHT22;2661;50.786;12.728;2023-09-19T06:14:49;16.00;1.00
5276;DHT22;2661;50.786;12.728;2023-09-19T06:17:15;16.00;1.00
5276;DHT22;2661;50.786;12.728;2023-09-19T06:19:43;16.10;1.00
5276;DHT22;2661;50.786;12.728;2023-09-19T06:22:15;16.10;1.00
5276;DHT22;2661;50.786;12.728;2023-09-19T06:24:42;16.10;1.00
5276;DHT22;2661;50.786;12.728;2023-09-19T06:27:09;16.20;1.00
5276;DHT22;2661;50.786;12.728;2023-09-19T06:29:36;16.30;1.00
5276;DHT22;2661;50.786;12.728;2023-09-19T06:32:10;16.30;1.00
5276;DHT22;2661;50.786;12.728;2023-09-19T06:34:37;16.40;1.00
5276;DHT22;2661;50.786;12.728;2023-09-19T06:37:10;16.40;1.00
5276;DHT22;2661;50.786;12.728;2023-09-19T06:39:36;16.50;1.00
5276;DHT22;2661;50.786;12.728;2023-09-19T06:42:03;16.50;1.00
5276;DHT22;2661;50.786;12.728;2023-09-19T06:44:30;16.50;1.00
5276;DHT22;2661;50.786;12.728;2023-09-19T06:46:58;16.60;1.00
5276;DHT22;2661;50.786;12.728;2023-09-19T06:49:25;16.70;1.00
5276;DHT22;2661;50.786;12.728;2023-09-19T06:51:53;16.70;1.00
5276;DHT22;2661;50.786;12.728;2023-09-19T06:54:20;16.80;1.00
5276;DHT22;2661;50.786;12.728;2023-09-19T06:56:47;16.80;1.00
5276;DHT22;2661;50.786;12.728;2023-09-19T06:59:14;16.80;1.00
5276;DHT22;2661;50.786;12.728;2023-09-19T07:01:41;16.90;1.00
5276;DHT22;2661;50.786;12.728;2023-09-19T07:04:08;16.90;1.00
5276;DHT22;2661;50.786;12.728;2023-09-19T07:06:35;16.90;1.00
5276;DHT22;2661;50.786;12.728;2023-09-19T07:09:02;17.00;1.00
5276;DHT22;2661;50.786;12.728;2023-09-19T07:11:28;17.10;1.00
5276;DHT22;2661;50.786;12.728;2023-09-19T07:13:57;17.10;1.00
5276;DHT22;2661;50.786;12.728;2023-09-19T07:16:24;17.20;1.00
5276;DHT22;2661;50.786;12.728;2023-09-19T07:18:56;17.30;1.00
5276;DHT22;2661;50.786;12.728;2023-09-19T07:21:23;17.50;1.00
5276;DHT22;2661;50.786;12.728;2023-09-19T07:23:49;17.50;1.00
5276;DHT22;2661;50.786;12.728;2023-09-19T07:26:18;17.50;1.00
5276;DHT22;2661;50.786;12.728;2023-09-19T07:28:45;17.50;1.00
5276;DHT22;2661;50.786;12.728;2023-09-19T07:31:12;17.60;1.00
5276;DHT22;2661;50.786;12.728;2023-09-19T07:33:40;17.70;1.00
5276;DHT22;2661;50.786;12.728;2023-09-19T07:36:09;17.80;1.00
5276;DHT22;2661;50.786;12.728;2023-09-19T07:38:37;17.80;1.00
5276;DHT22;2661;50.786;12.728;2023-09-19T07:41:04;17.80;1.00
5276;DHT22;2661;50.786;12.728;2023-09-19T07:43:31;17.90;1.00
5276;DHT22;2661;50.786;12.728;2023-09-19T07:46:02;17.90;1.00
5276;DHT22;2661;50.786;12.728;2023-09-19T07:48:29;18.00;1.00
5276;DHT22;2661;50.786;12.728;2023-09-19T07:50:55;18.00;1.00
5276;DHT22;2661;50.786;12.728;2023-09-19T07:53:22;18.10;1.00
5276;DHT22;2661;50.786;12.728;2023-09-19T07:55:49;18.30;1.00
5276;DHT22;2661;50.786;12.728;2023-09-19T07:58:15;18.20;1.00
5276;DHT22;2661;50.786;12.728;2023-09-19T08:00:42;18.30;1.00
5276;DHT22;2661;50.786;12.728;2023-09-19T08:03:09;18.30;1.00
5276;DHT22;2661;50.786;12.728;2023-09-19T08:05:44;18.30;1.00
5276;DHT22;2661;50.786;12.728;2023-09-19T08:08:11;18.30;1.00
5276;DHT22;2661;50.786;12.728;2023-09-19T08:10:41;18.30;1.00
5276;DHT22;2661;50.786;12.728;2023-09-19T08:13:12;18.20;1.00
5276;DHT22;2661;50.786;12.728;2023-09-19T08:15:44;18.10;1.00
5276;DHT22;2661;50.786;12.728;2023-09-19T08:18:11;18.10;1.00
5276;DHT22;2661;50.786;12.728;2023-09-19T08:20:38;18.00;1.00
5276;DHT22;2661;50.786;12.728;2023-09-19T08:23:08;18.00;1.00
5276;DHT22;2661;50.786;12.728;2023-09-19T08:25:35;18.00;1.00
5276;DHT22;2661;50.786;12.728;2023-09-19T08:28:01;17.90;1.00
5276;DHT22;2661;50.786;12.728;2023-09-19T08:30:34;17.90;99.90
5276;DHT22;2661;50.786;12.728;2023-09-19T08:33:01;17.90;1.00
5276;DHT22;2661;50.786;12.728;2023-09-19T08:35:31;17.90;1.00
5276;DHT22;2661;50.786;12.728;2023-09-19T08:37:57;18.00;1.00
5276;DHT22;2661;50.786;12.728;2023-09-19T08:40:27;18.00;1.00
5276;DHT22;2661;50.786;12.728;2023-09-19T08:42:57;18.10;1.00
5276;DHT22;2661;50.786;12.728;2023-09-19T08:45:24;18.10;1.00
5276;DHT22;2661;50.786;12.728;2023-09-19T08:48:00;18.20;1.00
5276;DHT22;2661;50.786;12.728;2023-09-19T08:50:33;18.30;1.00
5276;DHT22;2661;50.786;12.728;2023-09-19T08:53:00;18.30;1.00
5276;DHT22;2661;50.786;12.728;2023-09-19T08:55:28;18.40;1.00
5276;DHT22;2661;50.786;12.728;2023-09-19T08:57:59;18.40;1.00
5276;DHT22;2661;50.786;12.728;2023-09-19T09:00:26;18.40;1.00
5276;DHT22;2661;50.786;12.728;2023-09-19T09:02:57;18.40;1.00
5276;DHT22;2661;50.786;12.728;2023-09-19T09:05:24;18.40;1.00
5276;DHT22;2661;50.786;12.728;2023-09-19T09:07:52;18.30;1.00
5276;DHT22;2661;50.786;12.728;2023-09-19T09:10:22;18.30;1.00
5276;DHT22;2661;50.786;12.728;2023-09-19T09:12:51;18.20;1.00
5276;DHT22;2661;50.786;12.728;2023-09-19T09:15:18;18.20;1.00
5276;DHT22;2661;50.786;12.728;2023-09-19T09:17:46;18.10;1.00
5276;DHT22;2661;50.786;12.728;2023-09-19T09:20:14;18.10;1.00
5276;DHT22;2661;50.786;12.728;2023-09-19T09:22:51;18.10;99.90
5276;DHT22;2661;50.786;12.728;2023-09-19T09:25:19;18.10;99.90
5276;DHT22;2661;50.786;12.728;2023-09-19T09:27:46;18.10;1.00
5276;DHT22;2661;50.786;12.728;2023-09-19T09:30:36;18.00;1.00
5276;DHT22;2661;50.786;12.728;2023-09-19T09:33:07;18.10;1.00
5276;DHT22;2661;50.786;12.728;2023-09-19T09:35:47;18.10;1.00
5276;DHT22;2661;50.786;12.728;2023-09-19T09:38:13;18.30;99.90
5276;DHT22;2661;50.786;12.728;2023-09-19T09:40:46;18.40;1.00
5276;DHT22;2661;50.786;12.728;2023-09-19T09:43:24;18.50;1.00
5276;DHT22;2661;50.786;12.728;2023-09-19T09:46:05;18.60;1.00
5276;DHT22;2661;50.786;12.728;2023-09-19T09:48:37;18.80;1.00
5276;DHT22;2661;50.786;12.728;2023-09-19T09:51:05;19.00;1.00
5276;DHT22;2661;50.786;12.728;2023-09-19T09:53:34;19.00;1.00
5276;DHT22;2661;50.786;12.728;2023-09-19T09:56:04;19.10;1.00
5276;DHT22;2661;50.786;12.728;2023-09-19T09:58:52;19.20;1.00
5276;DHT22;2661;50.786;12.728;2023-09-19T10:01:25;19.20;1.00
5276;DHT22;2661;50.786;12.728;2023-09-19T10:03:58;19.20;1.00
5276;DHT22;2661;50.786;12.728;2023-09-19T10:06:39;19.10;1.00
5276;DHT22;2661;50.786;12.728;2023-09-19T10:09:07;19.00;1.00
5276;DHT22;2661;50.786;12.728;2023-09-19T10:11:38;19.00;1.00
5276;DHT22;2661;50.786;12.728;2023-09-19T10:14:07;19.00;1.00
5276;DHT22;2661;50.786;12.728;2023-09-19T10:16:36;18.90;1.00
5276;DHT22;2661;50.786;12.728;2023-09-19T10:19:06;18.80;1.00
5276;DHT22;2661;50.786;12.728;2023-09-19T10:21:33;18.90;1.00
5276;DHT22;2661;50.786;12.728;2023-09-19T10:24:03;19.00;1.00
5276;DHT22;2661;50.786;12.728;2023-09-19T10:26:31;19.10;1.00
5276;DHT22;2661;50.786;12.728;2023-09-19T10:28:58;19.20;1.00
5276;DHT22;2661;50.786;12.728;2023-09-19T10:31:27;19.30;1.00
5276;DHT22;2661;50.786;12.728;2023-09-19T10:33:55;19.30;1.00
5276;DHT22;2661;50.786;12.728;2023-09-19T10:36:25;19.40;1.00
5276;DHT22;2661;50.786;12.728;2023-09-19T10:38:52;19.40;1.00
5276;DHT22;2661;50.786;12.728;2023-09-19T10:41:22;19.40;1.00
5276;DHT22;2661;50.786;12.728;2023-09-19T10:43:49;19.40;1.00
5276;DHT22;2661;50.786;12.728;2023-09-19T10:46:17;19.40;1.00
5276;DHT22;2661;50.786;12.728;2023-09-19T10:48:44;19.40;1.00
5276;DHT22;2661;50.786;12.728;2023-09-19T10:51:22;19.40;1.00
5276;DHT22;2661;50.786;12.728;2023-09-19T10:53:59;19.40;1.00
5276;DHT22;2661;50.786;12.728;2023-09-19T10:56:32;19.40;1.00
5276;DHT22;2661;50.786;12.728;2023-09-19T10:59:06;19.50;1.00
5276;DHT22;2661;50.786;12.728;2023-09-19T11:01:45;19.60;1.00
5276;DHT22;2661;50.786;12.728;2023-09-19T11:04:48;19.60;1.00
5276;DHT22;2661;50.786;12.728;2023-09-19T11:07:09;19.70;1.00
5276;DHT22;2661;50.786;12.728;2023-09-19T11:12:13;19.70;1.00
5276;DHT22;2661;50.786;12.728;2023-09-19T11:15:05;19.80;1.00
5276;DHT22;2661;50.786;12.728;2023-09-19T11:17:35;19.90;1.00
5276;DHT22;2661;50.786;12.728;2023-09-19T11:28:27;20.10;1.00
5276;DHT22;2661;50.786;12.728;2023-09-19T11:30:49;20.00;1.00
5276;DHT22;2661;50.786;12.728;2023-09-19T11:33:18;20.00;1.00
5276;DHT22;2661;50.786;12.728;2023-09-19T11:44:31;20.10;1.00
5276;DHT22;2661;50.786;12.728;2023-09-19T11:49:19;20.10;1.00
5276;DHT22;2661;50.786;12.728;2023-09-19T11:51:53;20.10;1.00
5276;DHT22;2661;50.786;12.728;2023-09-19T11:54:21;20.10;1.00
5276;DHT22;2661;50.786;12.728;2023-09-19T11:56:58;20.10;1.00
5276;DHT22;2661;50.786;12.728;2023-09-19T11:59:29;20.10;1.00
5276;DHT22;2661;50.786;12.728;2023-09-19T12:01:57;20.10;1.00
5276;DHT22;2661;50.786;12.728;2023-09-19T12:04:33;20.00;1.00
5276;DHT22;2661;50.786;12.728;2023-09-19T12:07:00;20.00;1.00
5276;DHT22;2661;50.786;12.728;2023-09-19T12:09:26;20.00;1.00
5276;DHT22;2661;50.786;12.728;2023-09-19T12:11:53;19.90;1.00
5276;DHT22;2661;50.786;12.728;2023-09-19T12:14:23;19.90;1.00
5276;DHT22;2661;50.786;12.728;2023-09-19T12:16:55;19.80;1.00
5276;DHT22;2661;50.786;12.728;2023-09-19T12:19:22;19.70;1.00
5276;DHT22;2661;50.786;12.728;2023-09-19T12:22:02;19.70;1.00
5276;DHT22;2661;50.786;12.728;2023-09-19T12:24:31;19.70;1.00
5276;DHT22;2661;50.786;12.728;2023-09-19T12:27:05;19.70;1.00
5276;DHT22;2661;50.786;12.728;2023-09-19T12:29:32;19.70;1.00
5276;DHT22;2661;50.786;12.728;2023-09-19T12:32:08;19.70;1.00
5276;DHT22;2661;50.786;12.728;2023-09-19T12:34:34;19.60;1.00
5276;DHT22;2661;50.786;12.728;2023-09-19T12:37:05;19.60;1.00
5276;DHT22;2661;50.786;12.728;2023-09-19T12:39:38;19.60;1.00
5276;DHT22;2661;50.786;12.728;2023-09-19T12:42:05;19.60;1.00
5276;DHT22;2661;50.786;12.728;2023-09-19T12:44:38;19.60;1.00
5276;DHT22;2661;50.786;12.728;2023-09-19T12:47:08;19.70;1.00
5276;DHT22;2661;50.786;12.728;2023-09-19T12:49:36;19.70;1.00
5276;DHT22;2661;50.786;12.728;2023-09-19T12:52:02;19.70;1.00
5276;DHT22;2661;50.786;12.728;2023-09-19T12:54:39;19.70;1.00
5276;DHT22;2661;50.786;12.728;2023-09-19T12:57:06;19.70;1.00
5276;DHT22;2661;50.786;12.728;2023-09-19T12:59:33;19.80;1.00
5276;DHT22;2661;50.786;12.728;2023-09-19T13:02:05;19.80;1.00
5276;DHT22;2661;50.786;12.728;2023-09-19T13:04:40;19.80;1.00
5276;DHT22;2661;50.786;12.728;2023-09-19T13:10:04;19.90;1.00
5276;DHT22;2661;50.786;12.728;2023-09-19T13:12:35;19.90;1.00
5276;DHT22;2661;50.786;12.728;2023-09-19T13:15:07;19.90;1.00
5276;DHT22;2661;50.786;12.728;2023-09-19T13:17:43;20.00;1.00
5276;DHT22;2661;50.786;12.728;2023-09-19T13:20:23;20.00;1.00
5276;DHT22;2661;50.786;12.728;2023-09-19T13:22:59;20.00;1.00
5276;DHT22;2661;50.786;12.728;2023-09-19T13:25:27;20.00;1.00
5276;DHT22;2661;50.786;12.728;2023-09-19T13:27:57;20.00;1.00
5276;DHT22;2661;50.786;12.728;2023-09-19T13:30:25;19.90;1.00
5276;DHT22;2661;50.786;12.728;2023-09-19T13:32:52;19.90;1.00
5276;DHT22;2661;50.786;12.728;2023-09-19T13:35:20;19.90;1.00
5276;DHT22;2661;50.786;12.728;2023-09-19T13:37:47;20.00;1.00
5276;DHT22;2661;50.786;12.728;2023-09-19T13:40:15;20.00;1.00
5276;DHT22;2661;50.786;12.728;2023-09-19T13:42:42;20.00;1.00
5276;DHT22;2661;50.786;12.728;2023-09-19T13:45:09;19.90;1.00
5276;DHT22;2661;50.786;12.728;2023-09-19T13:47:39;19.90;1.00
5276;DHT22;2661;50.786;12.728;2023-09-19T13:50:07;19.90;1.00
5276;DHT22;2661;50.786;12.728;2023-09-19T13:52:34;20.00;1.00
5276;DHT22;2661;50.786;12.728;2023-09-19T13:55:01;19.90;1.00
5276;DHT22;2661;50.786;12.728;2023-09-19T13:57:27;19.90;1.00
5276;DHT22;2661;50.786;12.728;2023-09-19T13:59:55;19.90;1.00
5276;DHT22;2661;50.786;12.728;2023-09-19T14:02:22;19.90;1.00
5276;DHT22;2661;50.786;12.728;2023-09-19T14:04:49;19.90;1.00
5276;DHT22;2661;50.786;12.728;2023-09-19T14:07:16;20.00;1.00
5276;DHT22;2661;50.786;12.728;2023-09-19T14:09:44;20.00;1.00
5276;DHT22;2661;50.786;12.728;2023-09-19T14:12:12;20.00;1.00
5276;DHT22;2661;50.786;12.728;2023-09-19T14:14:38;20.00;1.00
5276;DHT22;2661;50.786;12.728;2023-09-19T14:17:05;20.00;1.00
5276;DHT22;2661;50.786;12.728;2023-09-19T14:19:33;20.10;1.00
5276;DHT22;2661;50.786;12.728;2023-09-19T14:22:02;20.00;1.00
5276;DHT22;2661;50.786;12.728;2023-09-19T14:24:34;19.90;1.00
5276;DHT22;2661;50.786;12.728;2023-09-19T14:27:01;19.90;1.00
5276;DHT22;2661;50.786;12.728;2023-09-19T14:29:30;19.80;1.00
5276;DHT22;2661;50.786;12.728;2023-09-19T14:31:56;19.80;1.00
5276;DHT22;2661;50.786;12.728;2023-09-19T14:34:24;19.80;1.00
5276;DHT22;2661;50.786;12.728;2023-09-19T14:36:51;19.80;1.00
5276;DHT22;2661;50.786;12.728;2023-09-19T14:39:18;19.70;1.00
5276;DHT22;2661;50.786;12.728;2023-09-19T14:41:46;19.70;1.00
5276;DHT22;2661;50.786;12.728;2023-09-19T14:44:12;19.70;1.00
5276;DHT22;2661;50.786;12.728;2023-09-19T14:46:39;19.70;1.00
5276;DHT22;2661;50.786;12.728;2023-09-19T14:49:06;19.70;1.00
5276;DHT22;2661;50.786;12.728;2023-09-19T14:51:33;19.70;1.00
5276;DHT22;2661;50.786;12.728;2023-09-19T14:54:02;19.60;1.00
5276;DHT22;2661;50.786;12.728;2023-09-19T14:56:29;19.60;1.00
5276;DHT22;2661;50.786;12.728;2023-09-19T14:58:57;19.50;1.00
5276;DHT22;2661;50.786;12.728;2023-09-19T15:01:24;19.50;1.00
5276;DHT22;2661;50.786;12.728;2023-09-19T15:03:51;19.50;1.00
5276;DHT22;2661;50.786;12.728;2023-09-19T15:06:18;19.50;1.00
5276;DHT22;2661;50.786;12.728;2023-09-19T15:08:46;19.40;1.00
5276;DHT22;2661;50.786;12.728;2023-09-19T15:11:14;19.40;1.00
5276;DHT22;2661;50.786;12.728;2023-09-19T15:13:44;19.40;1.00
5276;DHT22;2661;50.786;12.728;2023-09-19T15:16:11;19.30;1.00
5276;DHT22;2661;50.786;12.728;2023-09-19T15:18:39;19.30;1.00
5276;DHT22;2661;50.786;12.728;2023-09-19T15:21:07;19.30;1.00
5276;DHT22;2661;50.786;12.728;2023-09-19T15:23:34;19.30;1.00
5276;DHT22;2661;50.786;12.728;2023-09-19T15:26:01;19.30;1.00
5276;DHT22;2661;50.786;12.728;2023-09-19T15:28:28;19.30;1.00
5276;DHT22;2661;50.786;12.728;2023-09-19T15:33:25;19.20;1.00
5276;DHT22;2661;50.786;12.728;2023-09-19T15:36:27;19.10;1.00
5276;DHT22;2661;50.786;12.728;2023-09-19T15:41:18;19.00;1.00
5276;DHT22;2661;50.786;12.728;2023-09-19T15:43:45;19.00;1.00
5276;DHT22;2661;50.786;12.728;2023-09-19T15:46:11;18.80;1.00
5276;DHT22;2661;50.786;12.728;2023-09-19T15:48:40;18.80;1.00
5276;DHT22;2661;50.786;12.728;2023-09-19T15:51:07;18.70;1.00
5276;DHT22;2661;50.786;12.728;2023-09-19T15:53:44;18.70;1.00
5276;DHT22;2661;50.786;12.728;2023-09-19T15:56:12;18.70;1.00
5276;DHT22;2661;50.786;12.728;2023-09-19T15:58:40;18.70;1.00
5276;DHT22;2661;50.786;12.728;2023-09-19T16:01:07;18.70;1.00
5276;DHT22;2661;50.786;12.728;2023-09-19T16:03:37;18.60;1.00
5276;DHT22;2661;50.786;12.728;2023-09-19T16:06:08;18.50;1.00
5276;DHT22;2661;50.786;12.728;2023-09-19T16:08:38;18.50;1.00
5276;DHT22;2661;50.786;12.728;2023-09-19T16:11:07;18.50;1.00
5276;DHT22;2661;50.786;12.728;2023-09-19T16:13:35;18.50;1.00
5276;DHT22;2661;50.786;12.728;2023-09-19T16:16:02;18.40;1.00
5276;DHT22;2661;50.786;12.728;2023-09-19T16:18:29;18.40;1.00
5276;DHT22;2661;50.786;12.728;2023-09-19T16:21:01;18.30;1.00
5276;DHT22;2661;50.786;12.728;2023-09-19T16:23:29;18.30;1.00
5276;DHT22;2661;50.786;12.728;2023-09-19T16:26:04;18.30;1.00
5276;DHT22;2661;50.786;12.728;2023-09-19T16:28:32;18.30;1.00
5276;DHT22;2661;50.786;12.728;2023-09-19T16:31:00;18.30;1.00
5276;DHT22;2661;50.786;12.728;2023-09-19T16:33:29;18.30;1.00
5276;DHT22;2661;50.786;12.728;2023-09-19T16:35:55;18.20;1.00
5276;DHT22;2661;50.786;12.728;2023-09-19T16:38:23;18.20;1.00
5276;DHT22;2661;50.786;12.728;2023-09-19T16:40:51;18.10;1.00
5276;DHT22;2661;50.786;12.728;2023-09-19T16:43:17;18.10;1.00
5276;DHT22;2661;50.786;12.728;2023-09-19T16:45:51;18.00;1.00
5276;DHT22;2661;50.786;12.728;2023-09-19T16:48:19;17.90;1.00
5276;DHT22;2661;50.786;12.728;2023-09-19T16:50:45;17.90;1.00